sensor_id;sensor_type;location;lat;lon;timestamp;P1;durP1;ratioP1;P2;durP2;ratioP2
21266;SDS011;10791;53.108;18.326;2023-12-28T00:00:06;9.73;;;5.80;;
21266;SDS011;10791;53.108;18.326;2023-12-28T00:05:29;9.17;;;4.83;;
21266;SDS011;10791;53.108;18.326;2023-12-28T00:10:33;10.63;;;5.83;;
21266;SDS011;10791;53.108;18.326;2023-12-28T00:15:36;14.57;;;7.10;;
21266;SDS011;10791;53.108;18.326;2023-12-28T00:20:40;13.60;;;6.00;;
21266;SDS011;10791;53.108;18.326;2023-12-28T00:25:43;14.60;;;6.60;;
21266;SDS011;10791;53.108;18.326;2023-12-28T00:30:46;13.17;;;6.17;;
21266;SDS011;10791;53.108;18.326;2023-12-28T00:35:49;12.57;;;7.00;;
21266;SDS011;10791;53.108;18.326;2023-12-28T00:40:53;11.97;;;6.97;;
21266;SDS011;10791;53.108;18.326;2023-12-28T00:45:56;13.37;;;6.83;;
21266;SDS011;10791;53.108;18.326;2023-12-28T00:51:00;14.17;;;7.37;;
21266;SDS011;10791;53.108;18.326;2023-12-28T00:56:03;11.67;;;5.57;;
21266;SDS011;10791;53.108;18.326;2023-12-28T01:01:08;13.43;;;6.57;;
21266;SDS011;10791;53.108;18.326;2023-12-28T01:06:11;21.43;;;6.20;;
21266;SDS011;10791;53.108;18.326;2023-12-28T01:11:15;17.70;;;7.10;;
21266;SDS011;10791;53.108;18.326;2023-12-28T01:16:18;14.73;;;7.07;;
21266;SDS011;10791;53.108;18.326;2023-12-28T01:21:22;11.33;;;6.07;;
21266;SDS011;10791;53.108;18.326;2023-12-28T01:26:27;14.43;;;6.90;;
21266;SDS011;10791;53.108;18.326;2023-12-28T01:31:31;16.17;;;6.13;;
21266;SDS011;10791;53.108;18.326;2023-12-28T01:36:34;11.53;;;5.57;;
21266;SDS011;10791;53.108;18.326;2023-12-28T01:41:38;11.57;;;5.20;;
21266;SDS011;10791;53.108;18.326;2023-12-28T01:46:42;21.37;;;6.87;;
21266;SDS011;10791;53.108;18.326;2023-12-28T01:51:45;12.07;;;6.40;;
21266;SDS011;10791;53.108;18.326;2023-12-28T01:56:50;20.97;;;7.07;;
21266;SDS011;10791;53.108;18.326;2023-12-28T02:01:53;18.57;;;6.07;;
21266;SDS011;10791;53.108;18.326;2023-12-28T02:06:57;17.10;;;6.03;;
21266;SDS011;10791;53.108;18.326;2023-12-28T02:12:02;19.20;;;6.57;;
21266;SDS011;10791;53.108;18.326;2023-12-28T02:17:06;10.30;;;4.67;;
21266;SDS011;10791;53.108;18.326;2023-12-28T02:22:16;10.83;;;7.00;;
21266;SDS011;10791;53.108;18.326;2023-12-28T02:27:21;19.80;;;5.67;;
21266;SDS011;10791;53.108;18.326;2023-12-28T02:32:39;10.97;;;4.80;;
21266;SDS011;10791;53.108;18.326;2023-12-28T02:37:53;14.43;;;6.07;;
21266;SDS011;10791;53.108;18.326;2023-12-28T02:43:01;17.33;;;4.90;;
21266;SDS011;10791;53.108;18.326;2023-12-28T02:48:05;12.57;;;5.57;;
21266;SDS011;10791;53.108;18.326;2023-12-28T02:53:09;12.57;;;4.50;;
21266;SDS011;10791;53.108;18.326;2023-12-28T02:58:13;8.80;;;3.27;;
21266;SDS011;10791;53.108;18.326;2023-12-28T03:03:16;11.30;;;4.97;;
21266;SDS011;10791;53.108;18.326;2023-12-28T03:08:20;10.60;;;4.17;;
21266;SDS011;10791;53.108;18.326;2023-12-28T03:13:23;7.80;;;4.17;;
21266;SDS011;10791;53.108;18.326;2023-12-28T03:18:27;8.47;;;4.67;;
21266;SDS011;10791;53.108;18.326;2023-12-28T03:23:30;19.70;;;6.00;;
21266;SDS011;10791;53.108;18.326;2023-12-28T03:28:34;12.53;;;5.03;;
21266;SDS011;10791;53.108;18.326;2023-12-28T03:33:38;6.73;;;4.87;;
21266;SDS011;10791;53.108;18.326;2023-12-28T03:38:41;9.37;;;4.67;;
21266;SDS011;10791;53.108;18.326;2023-12-28T03:43:45;8.47;;;3.77;;
21266;SDS011;10791;53.108;18.326;2023-12-28T03:48:48;7.53;;;4.13;;
21266;SDS011;10791;53.108;18.326;2023-12-28T03:53:52;9.80;;;4.23;;
21266;SDS011;10791;53.108;18.326;2023-12-28T03:58:55;9.53;;;4.23;;
21266;SDS011;10791;53.108;18.326;2023-12-28T04:03:58;8.73;;;4.03;;
21266;SDS011;10791;53.108;18.326;2023-12-28T04:09:02;11.33;;;4.43;;
21266;SDS011;10791;53.108;18.326;2023-12-28T04:14:05;11.60;;;4.73;;
21266;SDS011;10791;53.108;18.326;2023-12-28T04:19:11;8.97;;;3.80;;
21266;SDS011;10791;53.108;18.326;2023-12-28T04:24:14;6.57;;;3.60;;
21266;SDS011;10791;53.108;18.326;2023-12-28T04:29:17;7.77;;;4.07;;
21266;SDS011;10791;53.108;18.326;2023-12-28T04:34:21;7.37;;;3.73;;
21266;SDS011;10791;53.108;18.326;2023-12-28T04:39:25;16.67;;;4.93;;
21266;SDS011;10791;53.108;18.326;2023-12-28T04:44:29;10.37;;;4.67;;
21266;SDS011;10791;53.108;18.326;2023-12-28T04:49:32;11.27;;;3.83;;
21266;SDS011;10791;53.108;18.326;2023-12-28T04:54:36;9.80;;;4.97;;
21266;SDS011;10791;53.108;18.326;2023-12-28T04:59:42;13.37;;;4.40;;
21266;SDS011;10791;53.108;18.326;2023-12-28T05:04:45;11.50;;;3.90;;
21266;SDS011;10791;53.108;18.326;2023-12-28T05:09:49;8.43;;;4.37;;
21266;SDS011;10791;53.108;18.326;2023-12-28T05:14:53;11.10;;;5.40;;
21266;SDS011;10791;53.108;18.326;2023-12-28T05:19:56;9.27;;;4.47;;
21266;SDS011;10791;53.108;18.326;2023-12-28T05:24:59;12.37;;;3.73;;
21266;SDS011;10791;53.108;18.326;2023-12-28T05:30:03;8.83;;;4.20;;
21266;SDS011;10791;53.108;18.326;2023-12-28T05:35:07;8.80;;;4.37;;
21266;SDS011;10791;53.108;18.326;2023-12-28T05:40:11;10.53;;;4.93;;
21266;SDS011;10791;53.108;18.326;2023-12-28T05:45:14;7.87;;;4.27;;
21266;SDS011;10791;53.108;18.326;2023-12-28T05:50:17;14.40;;;6.07;;
21266;SDS011;10791;53.108;18.326;2023-12-28T05:55:20;9.73;;;5.13;;
21266;SDS011;10791;53.108;18.326;2023-12-28T06:00:24;15.00;;;6.70;;
21266;SDS011;10791;53.108;18.326;2023-12-28T06:05:27;11.33;;;6.73;;
21266;SDS011;10791;53.108;18.326;2023-12-28T06:10:31;13.43;;;6.47;;
21266;SDS011;10791;53.108;18.326;2023-12-28T06:15:34;13.77;;;5.33;;
21266;SDS011;10791;53.108;18.326;2023-12-28T06:20:37;10.30;;;4.97;;
21266;SDS011;10791;53.108;18.326;2023-12-28T06:25:40;11.50;;;5.57;;
21266;SDS011;10791;53.108;18.326;2023-12-28T06:30:43;13.30;;;5.27;;
21266;SDS011;10791;53.108;18.326;2023-12-28T06:35:47;11.53;;;5.53;;
21266;SDS011;10791;53.108;18.326;2023-12-28T06:40:51;13.13;;;6.50;;
21266;SDS011;10791;53.108;18.326;2023-12-28T06:45:55;10.23;;;5.00;;
21266;SDS011;10791;53.108;18.326;2023-12-28T06:50:58;10.47;;;4.10;;
21266;SDS011;10791;53.108;18.326;2023-12-28T06:56:01;10.73;;;5.27;;
21266;SDS011;10791;53.108;18.326;2023-12-28T07:01:05;14.43;;;5.63;;
21266;SDS011;10791;53.108;18.326;2023-12-28T07:06:08;9.90;;;4.67;;
21266;SDS011;10791;53.108;18.326;2023-12-28T07:11:12;13.37;;;4.70;;
21266;SDS011;10791;53.108;18.326;2023-12-28T07:16:16;12.73;;;5.13;;
21266;SDS011;10791;53.108;18.326;2023-12-28T07:21:20;15.27;;;5.67;;
21266;SDS011;10791;53.108;18.326;2023-12-28T07:26:23;8.50;;;4.23;;
21266;SDS011;10791;53.108;18.326;2023-12-28T07:31:27;15.17;;;5.23;;
21266;SDS011;10791;53.108;18.326;2023-12-28T07:36:32;9.50;;;5.23;;
21266;SDS011;10791;53.108;18.326;2023-12-28T07:41:36;12.23;;;4.90;;
21266;SDS011;10791;53.108;18.326;2023-12-28T07:46:39;16.10;;;5.70;;
21266;SDS011;10791;53.108;18.326;2023-12-28T07:51:43;14.60;;;5.57;;
21266;SDS011;10791;53.108;18.326;2023-12-28T07:56:47;12.90;;;4.73;;
21266;SDS011;10791;53.108;18.326;2023-12-28T08:01:51;9.73;;;4.77;;
21266;SDS011;10791;53.108;18.326;2023-12-28T08:06:55;10.23;;;4.83;;
21266;SDS011;10791;53.108;18.326;2023-12-28T08:12:05;10.27;;;4.00;;
21266;SDS011;10791;53.108;18.326;2023-12-28T08:17:09;9.80;;;4.17;;
21266;SDS011;10791;53.108;18.326;2023-12-28T08:22:13;8.90;;;4.03;;
21266;SDS011;10791;53.108;18.326;2023-12-28T08:27:16;7.90;;;3.97;;
21266;SDS011;10791;53.108;18.326;2023-12-28T08:32:20;8.47;;;3.47;;
21266;SDS011;10791;53.108;18.326;2023-12-28T08:37:24;5.63;;;2.63;;
21266;SDS011;10791;53.108;18.326;2023-12-28T08:42:28;7.00;;;3.63;;
21266;SDS011;10791;53.108;18.326;2023-12-28T08:47:32;5.60;;;2.73;;
21266;SDS011;10791;53.108;18.326;2023-12-28T08:52:36;7.93;;;3.93;;
21266;SDS011;10791;53.108;18.326;2023-12-28T08:57:40;5.27;;;3.00;;
21266;SDS011;10791;53.108;18.326;2023-12-28T09:02:45;8.67;;;3.47;;
21266;SDS011;10791;53.108;18.326;2023-12-28T09:07:48;7.47;;;3.23;;
21266;SDS011;10791;53.108;18.326;2023-12-28T09:12:52;7.90;;;3.70;;
21266;SDS011;10791;53.108;18.326;2023-12-28T09:17:56;6.17;;;3.00;;
21266;SDS011;10791;53.108;18.326;2023-12-28T09:23:00;3.97;;;2.50;;
21266;SDS011;10791;53.108;18.326;2023-12-28T09:28:04;7.10;;;2.67;;
21266;SDS011;10791;53.108;18.326;2023-12-28T09:33:08;6.20;;;2.90;;
21266;SDS011;10791;53.108;18.326;2023-12-28T09:38:11;5.57;;;2.67;;
21266;SDS011;10791;53.108;18.326;2023-12-28T09:43:24;5.73;;;2.87;;
21266;SDS011;10791;53.108;18.326;2023-12-28T09:48:29;6.83;;;3.00;;
21266;SDS011;10791;53.108;18.326;2023-12-28T09:53:34;5.83;;;3.13;;
21266;SDS011;10791;53.108;18.326;2023-12-28T09:58:38;5.90;;;2.97;;
21266;SDS011;10791;53.108;18.326;2023-12-28T10:03:43;8.07;;;3.27;;
21266;SDS011;10791;53.108;18.326;2023-12-28T10:08:47;7.17;;;3.63;;
21266;SDS011;10791;53.108;18.326;2023-12-28T10:13:53;5.97;;;3.27;;
21266;SDS011;10791;53.108;18.326;2023-12-28T10:18:56;5.50;;;3.10;;
21266;SDS011;10791;53.108;18.326;2023-12-28T10:24:01;5.23;;;3.03;;
21266;SDS011;10791;53.108;18.326;2023-12-28T10:29:05;6.27;;;3.00;;
21266;SDS011;10791;53.108;18.326;2023-12-28T10:34:08;6.33;;;2.63;;
21266;SDS011;10791;53.108;18.326;2023-12-28T10:39:14;6.77;;;2.60;;
21266;SDS011;10791;53.108;18.326;2023-12-28T10:44:23;5.40;;;3.23;;
21266;SDS011;10791;53.108;18.326;2023-12-28T10:49:30;5.60;;;3.10;;
21266;SDS011;10791;53.108;18.326;2023-12-28T11:00:04;4.97;;;2.73;;
21266;SDS011;10791;53.108;18.326;2023-12-28T11:05:15;6.17;;;2.67;;
21266;SDS011;10791;53.108;18.326;2023-12-28T11:10:21;7.40;;;3.70;;
21266;SDS011;10791;53.108;18.326;2023-12-28T11:15:26;6.17;;;3.43;;
21266;SDS011;10791;53.108;18.326;2023-12-28T11:20:30;8.30;;;3.00;;
21266;SDS011;10791;53.108;18.326;2023-12-28T11:25:35;8.50;;;3.70;;
21266;SDS011;10791;53.108;18.326;2023-12-28T11:30:39;6.10;;;3.03;;
21266;SDS011;10791;53.108;18.326;2023-12-28T11:35:47;4.60;;;2.80;;
21266;SDS011;10791;53.108;18.326;2023-12-28T11:40:50;7.43;;;2.90;;
21266;SDS011;10791;53.108;18.326;2023-12-28T11:45:57;6.77;;;2.77;;
21266;SDS011;10791;53.108;18.326;2023-12-28T11:51:01;4.23;;;3.07;;
21266;SDS011;10791;53.108;18.326;2023-12-28T11:56:05;6.80;;;2.77;;
21266;SDS011;10791;53.108;18.326;2023-12-28T12:01:12;6.83;;;2.37;;
21266;SDS011;10791;53.108;18.326;2023-12-28T12:06:16;6.37;;;2.17;;
21266;SDS011;10791;53.108;18.326;2023-12-28T12:11:20;5.30;;;2.47;;
21266;SDS011;10791;53.108;18.326;2023-12-28T12:16:24;5.93;;;2.20;;
21266;SDS011;10791;53.108;18.326;2023-12-28T12:21:27;3.67;;;2.03;;
21266;SDS011;10791;53.108;18.326;2023-12-28T12:26:30;4.90;;;2.30;;
21266;SDS011;10791;53.108;18.326;2023-12-28T12:31:35;7.87;;;2.63;;
21266;SDS011;10791;53.108;18.326;2023-12-28T12:36:40;6.60;;;3.03;;
21266;SDS011;10791;53.108;18.326;2023-12-28T12:41:45;7.13;;;2.50;;
21266;SDS011;10791;53.108;18.326;2023-12-28T12:46:57;4.90;;;2.93;;
21266;SDS011;10791;53.108;18.326;2023-12-28T12:52:01;5.93;;;2.63;;
21266;SDS011;10791;53.108;18.326;2023-12-28T12:57:07;6.03;;;3.00;;
21266;SDS011;10791;53.108;18.326;2023-12-28T13:02:11;5.27;;;2.30;;
21266;SDS011;10791;53.108;18.326;2023-12-28T13:07:16;5.03;;;1.93;;
21266;SDS011;10791;53.108;18.326;2023-12-28T13:12:23;5.63;;;2.47;;
21266;SDS011;10791;53.108;18.326;2023-12-28T13:17:28;4.70;;;2.57;;
21266;SDS011;10791;53.108;18.326;2023-12-28T13:22:32;7.43;;;2.53;;
21266;SDS011;10791;53.108;18.326;2023-12-28T13:27:36;7.30;;;2.30;;
21266;SDS011;10791;53.108;18.326;2023-12-28T13:32:40;6.17;;;3.13;;
21266;SDS011;10791;53.108;18.326;2023-12-28T13:37:43;5.20;;;2.57;;
21266;SDS011;10791;53.108;18.326;2023-12-28T13:42:46;9.27;;;2.70;;
21266;SDS011;10791;53.108;18.326;2023-12-28T13:47:49;3.57;;;2.33;;
21266;SDS011;10791;53.108;18.326;2023-12-28T13:52:54;5.03;;;2.67;;
21266;SDS011;10791;53.108;18.326;2023-12-28T13:57:58;7.27;;;3.20;;
21266;SDS011;10791;53.108;18.326;2023-12-28T14:03:03;5.27;;;2.53;;
21266;SDS011;10791;53.108;18.326;2023-12-28T14:08:07;4.93;;;2.83;;
21266;SDS011;10791;53.108;18.326;2023-12-28T14:13:10;4.03;;;2.53;;
21266;SDS011;10791;53.108;18.326;2023-12-28T14:18:14;5.00;;;2.57;;
21266;SDS011;10791;53.108;18.326;2023-12-28T14:23:25;4.60;;;2.37;;
21266;SDS011;10791;53.108;18.326;2023-12-28T14:28:33;5.27;;;2.77;;
21266;SDS011;10791;53.108;18.326;2023-12-28T14:33:40;3.77;;;2.13;;
21266;SDS011;10791;53.108;18.326;2023-12-28T14:38:45;5.97;;;2.37;;
21266;SDS011;10791;53.108;18.326;2023-12-28T14:43:49;6.00;;;2.70;;
21266;SDS011;10791;53.108;18.326;2023-12-28T14:48:53;4.53;;;2.37;;
21266;SDS011;10791;53.108;18.326;2023-12-28T14:53:58;4.13;;;2.50;;
21266;SDS011;10791;53.108;18.326;2023-12-28T14:59:03;6.00;;;2.57;;
21266;SDS011;10791;53.108;18.326;2023-12-28T15:04:06;7.10;;;2.73;;
21266;SDS011;10791;53.108;18.326;2023-12-28T15:09:10;5.57;;;3.00;;
21266;SDS011;10791;53.108;18.326;2023-12-28T15:14:15;8.00;;;3.10;;
21266;SDS011;10791;53.108;18.326;2023-12-28T15:19:20;7.83;;;2.60;;
21266;SDS011;10791;53.108;18.326;2023-12-28T15:24:25;7.33;;;3.60;;
21266;SDS011;10791;53.108;18.326;2023-12-28T15:29:29;7.30;;;2.43;;
21266;SDS011;10791;53.108;18.326;2023-12-28T15:34:32;3.43;;;2.27;;
21266;SDS011;10791;53.108;18.326;2023-12-28T15:39:36;4.30;;;2.30;;
21266;SDS011;10791;53.108;18.326;2023-12-28T15:44:40;9.00;;;4.00;;
21266;SDS011;10791;53.108;18.326;2023-12-28T15:49:44;8.83;;;3.57;;
21266;SDS011;10791;53.108;18.326;2023-12-28T15:54:48;7.53;;;3.43;;
21266;SDS011;10791;53.108;18.326;2023-12-28T15:59:53;7.47;;;3.57;;
21266;SDS011;10791;53.108;18.326;2023-12-28T16:05:01;6.87;;;3.60;;
21266;SDS011;10791;53.108;18.326;2023-12-28T16:10:04;8.27;;;3.37;;
21266;SDS011;10791;53.108;18.326;2023-12-28T16:15:10;7.43;;;3.20;;
21266;SDS011;10791;53.108;18.326;2023-12-28T16:20:15;7.47;;;3.93;;
21266;SDS011;10791;53.108;18.326;2023-12-28T16:25:19;7.73;;;3.80;;
21266;SDS011;10791;53.108;18.326;2023-12-28T16:30:23;4.80;;;3.07;;
21266;SDS011;10791;53.108;18.326;2023-12-28T16:35:27;10.53;;;4.00;;
21266;SDS011;10791;53.108;18.326;2023-12-28T16:40:30;7.87;;;4.23;;
21266;SDS011;10791;53.108;18.326;2023-12-28T16:45:33;7.53;;;3.50;;
21266;SDS011;10791;53.108;18.326;2023-12-28T16:50:38;9.27;;;3.63;;
21266;SDS011;10791;53.108;18.326;2023-12-28T16:55:42;6.00;;;2.97;;
21266;SDS011;10791;53.108;18.326;2023-12-28T17:00:46;7.23;;;3.67;;
21266;SDS011;10791;53.108;18.326;2023-12-28T17:05:51;7.10;;;3.80;;
21266;SDS011;10791;53.108;18.326;2023-12-28T17:10:55;8.57;;;3.87;;
21266;SDS011;10791;53.108;18.326;2023-12-28T17:16:00;9.90;;;3.77;;
21266;SDS011;10791;53.108;18.326;2023-12-28T17:21:06;8.07;;;4.00;;
21266;SDS011;10791;53.108;18.326;2023-12-28T17:26:27;9.80;;;4.20;;
21266;SDS011;10791;53.108;18.326;2023-12-28T17:31:36;8.67;;;4.17;;
21266;SDS011;10791;53.108;18.326;2023-12-28T17:36:41;7.03;;;3.37;;
21266;SDS011;10791;53.108;18.326;2023-12-28T17:41:44;6.30;;;3.97;;
21266;SDS011;10791;53.108;18.326;2023-12-28T17:46:51;9.27;;;4.37;;
21266;SDS011;10791;53.108;18.326;2023-12-28T17:52:00;7.30;;;3.40;;
21266;SDS011;10791;53.108;18.326;2023-12-28T17:57:04;5.50;;;3.53;;
21266;SDS011;10791;53.108;18.326;2023-12-28T18:02:09;8.73;;;3.40;;
21266;SDS011;10791;53.108;18.326;2023-12-28T18:07:16;5.13;;;3.10;;
21266;SDS011;10791;53.108;18.326;2023-12-28T18:12:19;4.60;;;3.10;;
21266;SDS011;10791;53.108;18.326;2023-12-28T18:17:24;8.93;;;3.73;;
21266;SDS011;10791;53.108;18.326;2023-12-28T18:22:28;6.97;;;3.47;;
21266;SDS011;10791;53.108;18.326;2023-12-28T18:27:33;6.50;;;3.37;;
21266;SDS011;10791;53.108;18.326;2023-12-28T18:32:38;7.77;;;4.00;;
21266;SDS011;10791;53.108;18.326;2023-12-28T18:37:45;7.63;;;3.87;;
21266;SDS011;10791;53.108;18.326;2023-12-28T18:42:51;6.00;;;2.73;;
21266;SDS011;10791;53.108;18.326;2023-12-28T18:47:57;7.00;;;3.53;;
21266;SDS011;10791;53.108;18.326;2023-12-28T18:53:03;10.70;;;4.00;;
21266;SDS011;10791;53.108;18.326;2023-12-28T18:58:09;5.87;;;3.77;;
21266;SDS011;10791;53.108;18.326;2023-12-28T19:03:15;9.67;;;3.67;;
21266;SDS011;10791;53.108;18.326;2023-12-28T19:08:20;7.07;;;3.63;;
21266;SDS011;10791;53.108;18.326;2023-12-28T19:13:24;5.97;;;3.10;;
21266;SDS011;10791;53.108;18.326;2023-12-28T19:18:28;7.70;;;3.67;;
21266;SDS011;10791;53.108;18.326;2023-12-28T19:23:32;9.20;;;3.43;;
21266;SDS011;10791;53.108;18.326;2023-12-28T19:28:37;6.27;;;3.53;;
21266;SDS011;10791;53.108;18.326;2023-12-28T19:33:41;7.53;;;3.57;;
21266;SDS011;10791;53.108;18.326;2023-12-28T19:38:47;7.27;;;3.57;;
21266;SDS011;10791;53.108;18.326;2023-12-28T19:43:52;6.00;;;3.40;;
21266;SDS011;10791;53.108;18.326;2023-12-28T19:49:00;7.80;;;3.47;;
21266;SDS011;10791;53.108;18.326;2023-12-28T19:54:08;9.63;;;3.60;;
21266;SDS011;10791;53.108;18.326;2023-12-28T19:59:12;5.73;;;3.17;;
21266;SDS011;10791;53.108;18.326;2023-12-28T20:04:18;9.13;;;3.07;;
21266;SDS011;10791;53.108;18.326;2023-12-28T20:09:24;10.03;;;3.60;;
21266;SDS011;10791;53.108;18.326;2023-12-28T20:14:29;7.27;;;3.97;;
21266;SDS011;10791;53.108;18.326;2023-12-28T20:19:36;6.70;;;2.87;;
21266;SDS011;10791;53.108;18.326;2023-12-28T20:24:41;7.80;;;3.20;;
21266;SDS011;10791;53.108;18.326;2023-12-28T20:29:47;5.97;;;3.27;;
21266;SDS011;10791;53.108;18.326;2023-12-28T20:34:52;8.90;;;3.80;;
21266;SDS011;10791;53.108;18.326;2023-12-28T20:39:57;7.67;;;3.23;;
21266;SDS011;10791;53.108;18.326;2023-12-28T20:45:03;7.17;;;3.30;;
21266;SDS011;10791;53.108;18.326;2023-12-28T20:50:09;5.87;;;2.57;;
21266;SDS011;10791;53.108;18.326;2023-12-28T20:55:17;5.57;;;2.83;;
21266;SDS011;10791;53.108;18.326;2023-12-28T21:00:23;8.17;;;3.13;;
21266;SDS011;10791;53.108;18.326;2023-12-28T21:05:29;9.27;;;3.47;;
21266;SDS011;10791;53.108;18.326;2023-12-28T21:10:34;8.37;;;3.33;;
21266;SDS011;10791;53.108;18.326;2023-12-28T21:15:42;9.03;;;3.53;;
21266;SDS011;10791;53.108;18.326;2023-12-28T21:20:51;8.17;;;3.87;;
21266;SDS011;10791;53.108;18.326;2023-12-28T21:26:12;6.30;;;3.30;;
21266;SDS011;10791;53.108;18.326;2023-12-28T21:31:18;6.93;;;3.13;;
21266;SDS011;10791;53.108;18.326;2023-12-28T21:36:24;6.30;;;3.80;;
21266;SDS011;10791;53.108;18.326;2023-12-28T21:41:30;6.13;;;2.70;;
21266;SDS011;10791;53.108;18.326;2023-12-28T21:46:35;5.37;;;2.80;;
21266;SDS011;10791;53.108;18.326;2023-12-28T21:51:42;6.87;;;3.07;;
21266;SDS011;10791;53.108;18.326;2023-12-28T21:56:47;10.17;;;2.97;;
21266;SDS011;10791;53.108;18.326;2023-12-28T22:01:51;7.83;;;2.80;;
21266;SDS011;10791;53.108;18.326;2023-12-28T22:06:56;6.27;;;2.53;;
21266;SDS011;10791;53.108;18.326;2023-12-28T22:12:00;64.77;;;6.53;;
21266;SDS011;10791;53.108;18.326;2023-12-28T22:17:05;7.17;;;3.83;;
21266;SDS011;10791;53.108;18.326;2023-12-28T22:22:09;6.03;;;2.50;;
21266;SDS011;10791;53.108;18.326;2023-12-28T22:27:13;5.80;;;2.80;;
21266;SDS011;10791;53.108;18.326;2023-12-28T22:32:17;6.23;;;2.63;;
21266;SDS011;10791;53.108;18.326;2023-12-28T22:37:21;5.50;;;2.90;;
21266;SDS011;10791;53.108;18.326;2023-12-28T22:42:25;5.70;;;3.47;;
21266;SDS011;10791;53.108;18.326;2023-12-28T22:47:28;7.40;;;2.33;;
21266;SDS011;10791;53.108;18.326;2023-12-28T22:52:32;10.40;;;3.87;;
21266;SDS011;10791;53.108;18.326;2023-12-28T22:57:36;4.97;;;3.10;;
21266;SDS011;10791;53.108;18.326;2023-12-28T23:02:40;7.87;;;3.17;;
21266;SDS011;10791;53.108;18.326;2023-12-28T23:07:44;7.20;;;2.77;;
21266;SDS011;10791;53.108;18.326;2023-12-28T23:12:47;4.77;;;3.07;;
21266;SDS011;10791;53.108;18.326;2023-12-28T23:17:51;5.70;;;2.60;;
21266;SDS011;10791;53.108;18.326;2023-12-28T23:22:56;4.73;;;3.43;;
21266;SDS011;10791;53.108;18.326;2023-12-28T23:28:00;8.40;;;3.03;;
21266;SDS011;10791;53.108;18.326;2023-12-28T23:33:07;7.03;;;3.10;;
21266;SDS011;10791;53.108;18.326;2023-12-28T23:38:10;7.90;;;3.20;;
21266;SDS011;10791;53.108;18.326;2023-12-28T23:43:14;9.53;;;3.13;;
21266;SDS011;10791;53.108;18.326;2023-12-28T23:48:18;10.50;;;3.33;;
21266;SDS011;10791;53.108;18.326;2023-12-28T23:53:22;4.27;;;2.53;;
21266;SDS011;10791;53.108;18.326;2023-12-28T23:58:25;15.67;;;3.60;;
